Time;durP1;ratioP1;P1;durP2;ratioP2;P2;SDS_P1;SDS_P2;PMS_P1;PMS_P2;Temp;Humidity;BMP_temperature;BMP_pressure;BME280_temperature;BME280_humidity;BME280_pressure;Samples;Min_cycle;Max_cycle;Signal;HPM_P1;HPM_P2
2023/08/29 00:01:17;;;;;;;5.73;2.20;;;14.10;99.90;;;15.13;100.00;97631.19;5074825;28;20468;-79
2023/08/29 00:03:48;;;;;;;6.67;2.10;;;14.00;99.90;;;15.12;100.00;97634.06;5072363;28;20482;-80
2023/08/29 00:06:19;;;;;;;7.67;2.90;;;14.10;99.90;;;15.10;100.00;97638.75;5073584;28;20476;-79
2023/08/29 00:08:49;;;;;;;12.00;2.27;;;14.10;99.90;;;15.13;100.00;97640.94;5074092;28;20467;-80
2023/08/29 00:11:19;;;;;;;3.40;2.60;;;14.10;99.90;;;15.13;100.00;97643.56;5074421;28;20488;-80
2023/08/29 00:13:52;;;;;;;2.80;2.50;;;14.00;99.90;;;15.08;100.00;97651.34;5072158;28;20472;-79
2023/08/29 00:16:22;;;;;;;5.33;2.23;;;14.00;99.90;;;14.99;100.00;97658.75;5072300;28;20479;-79
2023/08/29 00:18:51;;;;;;;3.27;2.33;;;14.00;99.90;;;14.93;100.00;97651.75;5071751;28;20451;-79
2023/08/29 00:21:23;;;;;;;5.10;2.30;;;14.00;99.90;;;14.95;100.00;97652.34;5072767;28;20934;-79
2023/08/29 00:23:54;;;;;;;2.90;2.13;;;14.00;99.90;;;14.98;100.00;97651.09;5070508;28;20452;-79
2023/08/29 00:26:25;;;;;;;4.00;1.87;;;14.00;99.90;;;14.96;100.00;97655.78;5075040;28;20464;-79
2023/08/29 00:28:55;;;;;;;4.00;2.10;;;13.90;99.90;;;14.91;100.00;97648.53;5070400;28;20471;-79
2023/08/29 00:31:25;;;;;;;5.57;2.33;;;14.00;99.90;;;14.90;100.00;97648.75;5072424;28;20621;-80
2023/08/29 00:33:55;;;;;;;3.83;2.33;;;14.00;99.90;;;14.92;100.00;97647.53;5074164;28;20455;-79
2023/08/29 00:36:26;;;;;;;3.20;2.23;;;14.00;99.90;;;14.87;100.00;97633.41;5070491;28;20470;-80
2023/08/29 00:38:55;;;;;;;3.57;1.90;;;14.00;99.90;;;14.88;100.00;97635.03;5071464;28;20487;-80
2023/08/29 00:41:24;;;;;;;7.70;2.47;;;13.90;99.90;;;14.90;100.00;97640.84;5074401;28;20982;-79
2023/08/29 00:43:54;;;;;;;6.73;2.57;;;13.90;99.90;;;14.86;100.00;97642.31;5071764;28;20612;-79
2023/08/29 00:46:24;;;;;;;2.27;2.07;;;13.90;99.90;;;14.89;100.00;97641.91;5074774;28;20486;-80
2023/08/29 00:48:56;;;;;;;14.53;2.50;;;13.80;99.90;;;14.85;100.00;97638.13;5076334;28;21032;-79
2023/08/29 00:51:26;;;;;;;8.27;2.23;;;13.80;99.90;;;14.80;100.00;97644.03;5075002;28;21006;-80
2023/08/29 00:53:57;;;;;;;3.20;2.20;;;13.70;99.90;;;14.81;100.00;97652.75;5076981;28;20456;-79
2023/08/29 00:56:27;;;;;;;3.70;2.60;;;13.80;99.90;;;14.78;100.00;97653.19;5072849;28;20463;-79
2023/08/29 00:58:56;;;;;;;3.30;2.47;;;13.80;99.90;;;14.82;100.00;97649.09;5077406;28;21336;-79
2023/08/29 01:01:25;;;;;;;2.40;2.20;;;13.80;99.90;;;14.82;100.00;97657.75;5074169;28;20490;-79
2023/08/29 01:03:56;;;;;;;2.50;1.90;;;13.80;99.90;;;14.77;100.00;97644.50;5075095;28;20915;-79
2023/08/29 01:06:27;;;;;;;6.30;2.30;;;13.80;99.90;;;14.76;100.00;97644.69;5073470;28;20463;-80
2023/08/29 01:08:58;;;;;;;5.47;2.20;;;13.90;99.90;;;14.78;100.00;97646.09;5074567;28;20459;-79
2023/08/29 01:11:36;;;;;;;3.30;2.43;;;13.80;99.90;;;14.80;100.00;97646.66;5074689;28;20503;-79
2023/08/29 01:14:16;;;;;;;3.67;2.33;;;13.70;99.90;;;14.78;100.00;97653.19;5073644;28;20535;-80
2023/08/29 01:16:58;;;;;;;3.97;2.53;;;13.70;99.90;;;14.76;100.00;97656.03;5074963;28;20521;-79
2023/08/29 01:19:29;;;;;;;3.37;2.47;;;13.80;99.90;;;14.75;100.00;97658.91;5074999;28;20482;-79
2023/08/29 01:22:23;;;;;;;17.80;2.80;;;13.80;99.90;;;14.80;100.00;97662.47;5072741;28;20463;-79
2023/08/29 01:25:01;;;;;;;2.37;2.17;;;13.80;99.90;;;14.81;100.00;97658.00;5073663;28;20463;-80
2023/08/29 01:27:35;;;;;;;2.40;2.20;;;13.80;99.90;;;14.73;100.00;97660.94;5076747;28;20455;-79
2023/08/29 01:30:07;;;;;;;4.20;2.23;;;13.80;99.90;;;14.74;100.00;97660.72;5074014;28;20555;-78
2023/08/29 01:32:38;;;;;;;4.07;2.20;;;13.80;99.90;;;14.73;100.00;97660.94;5074790;28;20575;-80
2023/08/29 01:35:12;;;;;;;2.67;1.77;;;13.80;99.90;;;14.75;100.00;97654.41;5075501;28;20464;-79
2023/08/29 01:37:42;;;;;;;2.50;2.07;;;13.80;99.90;;;14.74;100.00;97663.38;5074810;28;20483;-79
2023/08/29 01:40:13;;;;;;;4.10;2.10;;;13.80;99.90;;;14.68;100.00;97653.72;5074168;28;20910;-80
2023/08/29 01:42:46;;;;;;;2.53;2.33;;;13.90;99.90;;;14.71;100.00;97655.09;5073677;28;20969;-79
2023/08/29 01:45:15;;;;;;;2.50;2.17;;;13.80;99.90;;;14.67;100.00;97652.13;5074577;28;20463;-79
2023/08/29 01:47:46;;;;;;;3.83;2.23;;;13.70;99.90;;;14.65;100.00;97650.75;5075723;28;20524;-80
2023/08/29 01:50:19;;;;;;;3.27;1.90;;;13.80;99.90;;;14.63;100.00;97655.41;5074780;28;20456;-79
2023/08/29 01:52:49;;;;;;;2.77;2.10;;;13.90;99.90;;;14.64;100.00;97665.72;5072909;28;22522;-79
2023/08/29 01:55:19;;;;;;;6.03;2.10;;;13.80;99.90;;;14.66;100.00;97662.84;5076460;28;20521;-79
2023/08/29 01:57:53;;;;;;;3.00;2.20;;;13.80;99.90;;;14.66;100.00;97658.41;5075153;28;20468;-79
2023/08/29 02:00:23;;;;;;;3.30;2.60;;;13.80;99.90;;;14.64;100.00;97667.56;5074231;28;20849;-79
2023/08/29 02:02:53;;;;;;;1.90;1.77;;;13.80;99.90;;;14.67;100.00;97657.38;5072217;28;20460;-80
2023/08/29 02:05:23;;;;;;;5.17;2.53;;;13.70;99.90;;;14.67;100.00;97651.31;5072694;28;20456;-79
2023/08/29 02:07:54;;;;;;;4.07;2.37;;;13.80;99.90;;;14.70;100.00;97648.22;5074622;28;20992;-80
2023/08/29 02:10:23;;;;;;;4.70;2.00;;;13.70;99.90;;;14.71;100.00;97647.22;5070692;28;20978;-80
2023/08/29 02:12:55;;;;;;;3.00;2.30;;;13.70;99.90;;;14.62;100.00;97641.44;5073744;28;21421;-79
2023/08/29 02:15:25;;;;;;;5.33;2.50;;;13.50;99.90;;;14.56;100.00;97635.25;5072613;28;20474;-79
2023/08/29 02:17:54;;;;;;;2.43;2.20;;;13.60;99.90;;;14.61;100.00;97630.09;5074084;28;20832;-78
2023/08/29 02:20:23;;;;;;;4.73;2.30;;;13.60;99.90;;;14.60;100.00;97633.78;5075329;28;21000;-79
2023/08/29 02:22:52;;;;;;;1.97;1.83;;;13.60;99.90;;;14.57;100.00;97631.59;5069354;28;21141;-79
2023/08/29 02:25:23;;;;;;;4.00;2.27;;;13.60;99.90;;;14.55;100.00;97632.81;5073034;28;20528;-80
2023/08/29 02:27:53;;;;;;;5.23;2.13;;;13.50;99.90;;;14.56;100.00;97623.91;5073936;28;20952;-80
2023/08/29 02:30:23;;;;;;;5.93;2.00;;;13.50;99.90;;;14.54;100.00;97620.72;5073383;28;20961;-79
2023/08/29 02:32:57;;;;;;;4.47;2.40;;;13.60;99.90;;;14.53;100.00;97619.91;5071523;28;20539;-79
2023/08/29 02:35:27;;;;;;;5.20;2.27;;;13.60;99.90;;;14.55;100.00;97617.84;5077694;28;20981;-79
2023/08/29 02:37:56;;;;;;;2.33;2.10;;;13.50;99.90;;;14.56;100.00;97613.38;5076326;28;21108;-80
2023/08/29 02:40:26;;;;;;;5.60;2.27;;;13.60;99.90;;;14.56;100.00;97618.66;5078135;28;20460;-80
2023/08/29 02:42:58;;;;;;;2.27;2.07;;;13.70;99.90;;;14.58;100.00;97622.66;5074691;28;20460;-80
2023/08/29 02:45:28;;;;;;;6.80;2.47;;;13.60;99.90;;;14.58;100.00;97621.84;5078605;28;20498;-80
2023/08/29 02:47:58;;;;;;;6.13;2.00;;;13.60;99.90;;;14.59;100.00;97628.72;5077439;28;20467;-80
2023/08/29 02:50:28;;;;;;;3.40;2.97;;;13.60;99.90;;;14.56;100.00;97622.09;5079382;28;20448;-80
2023/08/29 02:52:58;;;;;;;2.53;2.00;;;13.60;99.90;;;14.59;100.00;97624.28;5076704;28;20475;-80
2023/08/29 02:55:28;;;;;;;5.03;2.07;;;13.60;99.90;;;14.56;100.00;97614.19;5078191;28;20460;-80
2023/08/29 02:58:00;;;;;;;2.60;2.27;;;13.60;99.90;;;14.56;100.00;97611.56;5077535;28;20488;-80
2023/08/29 03:00:30;;;;;;;5.00;2.50;;;13.60;99.90;;;14.59;100.00;97607.69;5076013;28;20479;-80
2023/08/29 03:03:03;;;;;;;2.40;2.20;;;13.60;99.90;;;14.56;100.00;97605.50;5074873;28;20470;-80
2023/08/29 03:05:32;;;;;;;4.10;2.30;;;13.60;99.90;;;14.57;100.00;97599.22;5074335;28;20464;-80
2023/08/29 03:08:06;;;;;;;4.97;3.00;;;13.60;99.90;;;14.55;100.00;97594.16;5076967;28;20455;-80
2023/08/29 03:10:37;;;;;;;3.27;2.33;;;13.50;99.90;;;14.51;100.00;97600.88;5072345;28;20890;-82
2023/08/29 03:13:09;;;;;;;8.93;2.30;;;13.60;99.90;;;14.50;100.00;97601.94;5072426;28;20854;-80
2023/08/29 03:15:40;;;;;;;3.00;2.10;;;13.60;99.90;;;14.54;100.00;97595.19;5074445;28;20476;-80
2023/08/29 03:18:10;;;;;;;5.37;2.13;;;13.60;99.90;;;14.54;100.00;97592.56;5076222;28;20459;-80
2023/08/29 03:20:41;;;;;;;6.23;2.23;;;13.60;99.90;;;14.56;100.00;97593.16;5072680;28;20614;-80
2023/08/29 03:23:12;;;;;;;4.97;2.43;;;13.60;99.90;;;14.54;100.00;97591.78;5071615;28;20479;-81
2023/08/29 03:25:45;;;;;;;3.67;2.53;;;13.60;99.90;;;14.53;100.00;97583.06;5073291;28;20803;-80
2023/08/29 03:28:18;;;;;;;49.77;20.80;;;13.60;99.90;;;14.55;100.00;97583.63;5070269;28;20480;-86
2023/08/29 03:30:49;;;;;;;3.13;2.70;;;13.50;99.90;;;14.54;100.00;97584.66;5074501;28;20499;-81
2023/08/29 03:33:20;;;;;;;2.90;2.30;;;13.50;99.90;;;14.57;100.00;97578.97;5072403;28;20479;-81
2023/08/29 03:36:00;;;;;;;3.30;2.40;;;13.60;99.90;;;14.57;100.00;97573.72;5073057;28;20947;-84
2023/08/29 03:38:30;;;;;;;5.20;3.80;;;13.50;99.90;;;14.55;100.00;97574.94;5071345;28;20479;-80
2023/08/29 03:41:00;;;;;;;8.63;2.77;;;13.60;99.90;;;14.53;100.00;97575.19;5076650;28;21439;-80
2023/08/29 03:43:31;;;;;;;3.40;3.10;;;13.60;99.90;;;14.52;100.00;97581.47;5075222;28;20464;-81
2023/08/29 03:46:02;;;;;;;4.13;2.00;;;13.60;99.90;;;14.56;100.00;97581.81;5075064;28;20459;-81
2023/08/29 03:48:34;;;;;;;6.70;2.40;;;13.60;99.90;;;14.56;100.00;97582.63;5076469;28;20456;-81
2023/08/29 03:51:06;;;;;;;2.67;2.13;;;13.50;99.90;;;14.57;100.00;97584.25;5075433;28;20468;-80
2023/08/29 03:53:37;;;;;;;4.43;2.30;;;13.50;99.90;;;14.57;100.00;97583.44;5074782;28;20581;-80
2023/08/29 03:56:10;;;;;;;3.50;2.50;;;13.50;99.90;;;14.57;100.00;97583.44;5076203;28;20979;-81
2023/08/29 03:58:41;;;;;;;2.70;2.20;;;13.50;99.90;;;14.60;100.00;97588.25;5075035;28;20483;-80
2023/08/29 04:01:11;;;;;;;9.97;2.93;;;13.50;99.90;;;14.57;100.00;97584.25;5074952;28;20470;-83
2023/08/29 04:03:42;;;;;;;2.43;2.17;;;13.50;99.90;;;14.58;100.00;97591.09;5075547;28;20475;-81
2023/08/29 04:06:12;;;;;;;3.07;2.33;;;13.50;99.90;;;14.60;100.00;97593.50;5075326;28;20444;-81
2023/08/29 04:08:42;;;;;;;2.87;2.30;;;13.50;99.90;;;14.58;100.00;97590.28;5077340;28;20495;-81
2023/08/29 04:11:13;;;;;;;5.27;2.50;;;13.50;99.90;;;14.57;100.00;97597.41;5073995;28;20460;-82
2023/08/29 04:13:45;;;;;;;3.13;2.83;;;13.50;99.90;;;14.56;100.00;97595.78;5074987;28;20920;-81
2023/08/29 04:16:15;;;;;;;3.13;2.47;;;13.50;99.90;;;14.54;100.00;97600.44;5074303;28;20907;-81
2023/08/29 04:18:46;;;;;;;15.13;2.60;;;13.60;99.90;;;14.54;100.00;97600.44;5076122;28;20452;-82
2023/08/29 04:21:16;;;;;;;5.43;2.80;;;13.60;99.90;;;14.55;100.00;97602.06;5074584;28;20528;-81
2023/08/29 04:23:45;;;;;;;3.90;2.57;;;13.60;99.90;;;14.56;100.00;97602.88;5075129;28;20468;-81
2023/08/29 04:26:17;;;;;;;4.77;2.60;;;13.60;99.90;;;14.57;100.00;97607.91;5074429;28;21656;-81
2023/08/29 04:28:48;;;;;;;6.43;2.13;;;13.60;99.90;;;14.56;100.00;97603.69;5074634;28;20479;-81
2023/08/29 04:31:19;;;;;;;5.50;2.70;;;13.60;99.90;;;14.54;100.00;97604.94;5073195;28;20452;-81
2023/08/29 04:33:50;;;;;;;4.33;2.30;;;13.50;99.90;;;14.52;100.00;97596.44;5074028;28;21347;-81
2023/08/29 04:36:21;;;;;;;4.00;2.80;;;13.60;99.90;;;14.53;100.00;97598.06;5072927;28;21021;-81
2023/08/29 04:38:50;;;;;;;4.50;3.03;;;13.60;99.90;;;14.52;100.00;97589.34;5074528;28;20480;-80
2023/08/29 04:41:20;;;;;;;3.70;2.40;;;13.60;99.90;;;14.48;100.00;97590.81;5074871;28;20458;-81
2023/08/29 04:43:51;;;;;;;4.27;2.93;;;13.60;99.90;;;14.52;100.00;97585.91;5075159;28;21541;-80
2023/08/29 04:46:21;;;;;;;7.90;2.67;;;13.60;99.90;;;14.53;100.00;97588.34;5075234;28;20460;-85
2023/08/29 04:48:52;;;;;;;9.27;4.93;;;13.60;99.90;;;14.54;100.00;97599.66;5073268;28;20463;-81
2023/08/29 04:51:22;;;;;;;6.43;2.33;;;13.60;99.90;;;14.54;100.00;97587.28;5074024;28;20475;-81
2023/08/29 04:53:52;;;;;;;3.37;2.63;;;13.50;99.90;;;14.56;100.00;97593.16;5072226;28;21557;-81
2023/08/29 04:56:22;;;;;;;3.30;2.60;;;13.60;99.90;;;14.56;100.00;97582.63;5075356;28;20875;-81
2023/08/29 04:58:53;;;;;;;3.33;2.50;;;13.60;99.90;;;14.57;100.00;97581.59;5073346;28;20475;-81
2023/08/29 05:01:22;;;;;;;4.80;2.50;;;13.60;99.90;;;14.57;100.00;97583.44;5075216;28;20540;-81
2023/08/29 05:03:54;;;;;;;4.23;2.70;;;13.60;99.90;;;14.58;100.00;97585.81;5075934;28;20472;-80
2023/08/29 05:06:25;;;;;;;8.63;2.80;;;13.60;99.90;;;14.59;100.00;97579.53;5073262;28;20451;-81
2023/08/29 05:08:55;;;;;;;6.67;2.60;;;13.60;99.90;;;14.60;100.00;97582.97;5076176;28;20519;-80
2023/08/29 05:11:25;;;;;;;4.17;3.13;;;13.60;99.90;;;14.59;100.00;97586.63;5071528;28;20459;-81
2023/08/29 05:13:56;;;;;;;3.60;2.70;;;13.50;99.90;;;14.58;100.00;97579.75;5075014;28;20522;-81
2023/08/29 05:16:26;;;;;;;3.30;2.90;;;13.50;99.90;;;14.58;100.00;97577.13;5073609;28;20472;-81
2023/08/29 05:18:56;;;;;;;5.33;3.00;;;13.50;99.90;;;14.60;100.00;97577.72;5073863;28;20512;-80
2023/08/29 05:21:26;;;;;;;5.13;3.07;;;13.60;99.90;;;14.60;100.00;97575.88;5073409;28;20897;-81
2023/08/29 05:23:57;;;;;;;6.47;2.60;;;13.60;99.90;;;14.58;100.00;97580.56;5073105;28;20813;-80
2023/08/29 05:26:26;;;;;;;3.70;3.10;;;13.70;99.90;;;14.60;100.00;97578.53;5073407;28;20494;-80
2023/08/29 05:28:57;;;;;;;6.70;2.90;;;13.60;99.90;;;14.61;100.00;97574.84;5073985;28;20691;-80
2023/08/29 05:31:26;;;;;;;5.23;3.80;;;13.60;99.90;;;14.62;100.00;97573.00;5073541;28;20517;-80
2023/08/29 05:33:56;;;;;;;3.90;3.27;;;13.60;99.90;;;14.65;100.00;97574.41;5074776;28;20586;-81
2023/08/29 05:36:25;;;;;;;3.13;2.83;;;13.70;99.90;;;14.64;100.00;97575.44;5072796;28;20472;-81
2023/08/29 05:38:54;;;;;;;4.90;3.10;;;13.60;99.90;;;14.66;100.00;97576.81;5072700;28;20542;-81
2023/08/29 05:41:22;;;;;;;3.30;2.87;;;13.70;99.90;;;14.68;100.00;97572.16;5073255;28;20518;-81
2023/08/29 05:43:52;;;;;;;3.33;2.93;;;13.60;99.90;;;14.69;100.00;97570.28;5075028;28;20479;-81
2023/08/29 05:46:23;;;;;;;5.53;3.60;;;13.70;99.90;;;14.69;100.00;97572.91;5072676;28;20540;-81
2023/08/29 05:48:53;;;;;;;3.93;3.20;;;13.70;99.90;;;14.68;100.00;97568.69;5074730;28;20486;-81
2023/08/29 05:51:23;;;;;;;4.90;3.30;;;13.70;99.90;;;14.70;100.00;97572.72;5074082;28;20460;-80
2023/08/29 05:53:53;;;;;;;6.70;3.20;;;13.80;99.90;;;14.74;100.00;97573.06;5074187;28;20552;-80
2023/08/29 05:56:22;;;;;;;4.37;3.53;;;13.80;99.90;;;14.75;100.00;97577.31;5072645;28;20536;-80
2023/08/29 05:58:51;;;;;;;3.70;3.30;;;13.80;99.90;;;14.77;100.00;97572.59;5068073;28;20463;-81
2023/08/29 06:01:22;;;;;;;7.30;3.83;;;13.80;99.90;;;14.78;100.00;97574.22;5069868;28;20464;-85
2023/08/29 06:03:53;;;;;;;9.33;4.00;;;13.80;99.90;;;14.81;100.00;97581.66;5069131;28;20950;-81
2023/08/29 06:06:23;;;;;;;6.43;3.77;;;13.80;99.90;;;14.84;100.00;97574.13;5071101;28;20549;-81
2023/08/29 06:08:53;;;;;;;4.07;3.47;;;13.90;99.90;;;14.87;100.00;97575.50;5071522;28;20462;-81
2023/08/29 06:11:24;;;;;;;10.13;4.40;;;13.80;99.90;;;14.86;100.00;97576.50;5073329;28;20470;-81
2023/08/29 06:13:55;;;;;;;6.83;3.57;;;13.90;99.90;;;14.87;100.00;97578.94;5076596;28;20516;-81
2023/08/29 06:16:26;;;;;;;7.30;3.83;;;13.90;99.90;;;14.90;100.00;97578.47;5071224;28;20467;-81
2023/08/29 06:18:56;;;;;;;4.13;3.67;;;13.90;99.90;;;14.91;100.00;97580.09;5077905;28;20544;-81
2023/08/29 06:21:25;;;;;;;10.23;4.00;;;13.90;99.90;;;14.88;100.00;97577.91;5075600;28;20466;-81
2023/08/29 06:23:55;;;;;;;10.07;3.97;;;13.90;99.90;;;14.87;100.00;97581.56;5075265;28;20456;-80
2023/08/29 06:26:24;;;;;;;5.33;3.67;;;14.00;99.90;;;14.91;100.00;97584.56;5074784;28;20880;-81
2023/08/29 06:28:53;;;;;;;6.90;4.80;;;14.00;99.90;;;14.92;100.00;97588.78;5073829;28;20969;-81
2023/08/29 06:31:24;;;;;;;4.93;3.70;;;14.00;99.90;;;14.91;100.00;97580.09;5072655;28;20989;-81
2023/08/29 06:33:53;;;;;;;11.87;3.80;;;14.00;99.90;;;14.95;100.00;97580.44;5074034;28;20574;-80
2023/08/29 06:36:23;;;;;;;4.37;3.93;;;14.00;99.90;;;14.94;100.00;97584.91;5075461;28;20965;-80
2023/08/29 06:38:53;;;;;;;7.30;4.70;;;14.10;99.90;;;14.99;100.00;97582.38;5071721;28;20463;-81
2023/08/29 06:41:24;;;;;;;6.73;4.40;;;14.10;99.90;;;15.02;100.00;97581.94;5072106;28;20472;-81
2023/08/29 06:43:56;;;;;;;7.83;5.90;;;14.10;99.90;;;15.01;100.00;97587.44;5074169;28;20853;-80
2023/08/29 06:46:26;;;;;;;11.70;6.63;;;14.40;99.90;;;15.03;100.00;97588.00;5075883;28;20957;-80
2023/08/29 06:48:55;;;;;;;8.53;5.43;;;14.40;99.90;;;15.01;100.00;97587.44;5073504;28;20464;-80
2023/08/29 06:51:26;;;;;;;9.30;5.97;;;14.50;99.90;;;15.03;100.00;97583.53;5074056;28;20990;-80
2023/08/29 06:53:56;;;;;;;7.70;5.50;;;14.50;99.90;;;15.09;100.00;97587.91;5074764;28;20579;-81
2023/08/29 06:56:27;;;;;;;8.63;5.63;;;14.40;99.90;;;15.13;100.00;97598.81;5074743;28;20463;-84
2023/08/29 06:58:58;;;;;;;5.63;5.00;;;14.50;99.90;;;15.13;100.00;97593.53;5074707;28;20456;-81
2023/08/29 07:01:29;;;;;;;7.73;5.57;;;14.50;99.90;;;15.15;100.00;97591.47;5075943;28;20970;-81
2023/08/29 07:04:00;;;;;;;6.70;5.10;;;14.60;99.90;;;15.15;100.00;97591.47;5075753;28;20455;-81
2023/08/29 07:06:30;;;;;;;7.37;5.40;;;14.60;99.90;;;15.19;100.00;97586.53;5076088;28;20479;-81
2023/08/29 07:09:00;;;;;;;7.93;5.37;;;14.70;99.90;;;15.23;100.00;97588.50;5077348;28;20476;-81
2023/08/29 07:11:30;;;;;;;8.07;5.13;;;14.70;99.90;;;15.28;100.00;97585.97;5074741;28;20515;-81
2023/08/29 07:14:01;;;;;;;7.03;5.20;;;14.70;99.90;;;15.34;100.00;97589.56;5074958;28;20484;-80
2023/08/29 07:16:33;;;;;;;6.30;4.43;;;14.70;99.90;;;15.39;100.00;97592.28;5074502;28;20467;-81
2023/08/29 07:19:06;;;;;;;5.43;4.80;;;14.70;99.90;;;15.41;100.00;97585.75;5076429;28;20463;-81
2023/08/29 07:21:35;;;;;;;11.43;4.70;;;14.70;99.90;;;15.44;100.00;97590.59;5074332;28;20567;-81
2023/08/29 07:24:05;;;;;;;7.00;5.20;;;14.80;99.90;;;15.50;100.00;97592.31;5078039;28;20468;-81
2023/08/29 07:26:36;;;;;;;6.60;4.83;;;14.70;99.90;;;15.56;100.00;97594.03;5076412;28;20455;-81
2023/08/29 07:29:07;;;;;;;6.73;5.50;;;14.80;99.90;;;15.61;100.00;97590.72;5074528;28;20460;-81
2023/08/29 07:31:38;;;;;;;5.47;4.57;;;14.90;99.90;;;15.69;100.00;97603.53;5074789;28;20955;-81
2023/08/29 07:34:08;;;;;;;8.80;5.87;;;14.80;99.90;;;15.76;100.00;97598.19;5070230;28;21578;-81
2023/08/29 07:36:39;;;;;;;7.30;6.07;;;14.90;99.90;;;15.81;100.00;97603.53;5071059;28;20487;-81
2023/08/29 07:39:08;;;;;;;10.70;7.57;;;15.00;99.90;;;15.86;100.00;97598.38;5072729;28;20475;-80
2023/08/29 07:41:40;;;;;;;8.90;6.93;;;15.10;99.90;;;15.90;100.00;97596.88;5072203;28;20459;-81
2023/08/29 07:44:12;;;;;;;6.83;5.77;;;15.10;99.90;;;15.96;100.00;97602.03;5073231;28;20880;-81
2023/08/29 07:46:44;;;;;;;12.90;9.73;;;15.10;99.90;;;16.02;100.00;97601.09;5071501;28;20490;-81
2023/08/29 07:49:32;;;;;;;14.97;8.70;;;15.20;99.90;;;16.08;100.00;97609.91;5076210;28;20822;-80
2023/08/29 07:52:02;;;;;;;13.13;6.67;;;15.20;99.90;;;16.11;100.00;97606.81;5074333;28;20460;-80
2023/08/29 07:54:32;;;;;;;7.57;6.10;;;15.20;99.90;;;16.14;100.00;97614.25;5073606;28;20498;-80
2023/08/29 07:57:00;;;;;;;8.53;5.20;;;15.30;99.90;;;16.19;100.00;97613.56;5075341;28;20854;-80
2023/08/29 07:59:31;;;;;;;7.40;5.90;;;15.30;99.90;;;16.24;100.00;97613.69;5075169;28;20466;-81
2023/08/29 08:02:01;;;;;;;8.00;6.30;;;15.30;99.90;;;16.29;100.00;97611.94;5072715;28;20463;-80
2023/08/29 08:04:31;;;;;;;13.30;7.77;;;15.40;99.90;;;16.32;100.00;97619.38;5071823;28;20464;-81
2023/08/29 08:07:00;;;;;;;15.47;9.00;;;15.50;99.90;;;16.36;100.00;97615.25;5072530;28;20464;-81
2023/08/29 08:09:29;;;;;;;14.67;8.00;;;15.60;99.90;;;16.40;100.00;97621.66;5070976;28;20541;-80
2023/08/29 08:12:00;;;;;;;11.43;8.53;;;15.60;99.90;;;16.40;100.00;97620.84;5071985;28;20558;-80
2023/08/29 08:14:33;;;;;;;10.93;8.50;;;15.80;99.90;;;16.46;100.00;97620.72;5070832;28;20471;-81
2023/08/29 08:17:05;;;;;;;10.27;6.93;;;15.80;99.90;;;16.53;100.00;97625.84;5073205;28;21040;-80
2023/08/29 08:19:36;;;;;;;9.60;6.70;;;15.80;99.90;;;16.56;100.00;97620.94;5072065;28;20452;-85
2023/08/29 08:22:08;;;;;;;20.80;12.73;;;16.00;99.90;;;16.59;100.00;97623.09;5072638;28;20470;-81
2023/08/29 08:24:39;;;;;;;9.57;7.10;;;15.90;99.90;;;16.64;100.00;97621.59;5072156;28;20471;-80
2023/08/29 08:27:08;;;;;;;12.63;6.57;;;16.00;99.90;;;16.68;100.00;97622.75;5072306;28;20460;-81
2023/08/29 08:29:38;;;;;;;10.93;7.20;;;16.10;99.90;;;16.77;100.00;97621.31;5072402;28;20864;-80
2023/08/29 08:32:09;;;;;;;7.60;5.50;;;16.10;99.90;;;16.84;100.00;97617.50;5070794;28;20842;-80
2023/08/29 08:34:38;;;;;;;42.40;18.77;;;16.10;99.90;;;16.89;100.00;97622.06;5070478;28;20557;-80
2023/08/29 08:37:08;;;;;;;12.13;7.00;;;16.20;99.90;;;16.93;100.00;97624.00;5072374;28;20484;-80
2023/08/29 08:39:38;;;;;;;13.97;5.70;;;16.20;99.90;;;17.01;100.00;97618.31;5073429;28;20975;-80
2023/08/29 08:42:10;;;;;;;9.77;4.90;;;16.20;99.90;;;17.06;100.00;97618.41;5068594;28;20882;-79
2023/08/29 08:44:41;;;;;;;6.60;4.50;;;16.40;99.90;;;17.11;100.00;97623.00;5071746;28;20462;-80
2023/08/29 08:47:14;;;;;;;6.10;4.70;;;16.30;99.90;;;17.14;100.00;97621.72;5071668;28;20469;-79
2023/08/29 08:49:45;;;;;;;6.20;4.43;;;16.50;99.90;;;17.21;100.00;97617.88;5073182;28;20479;-79
2023/08/29 08:52:17;;;;;;;7.43;4.10;;;16.50;99.90;;;17.27;100.00;97622.19;5075015;28;20557;-80
2023/08/29 08:54:47;;;;;;;7.13;4.57;;;16.60;99.90;;;17.29;100.00;97620.09;5073469;28;20486;-80
2023/08/29 08:57:16;;;;;;;5.90;3.83;;;16.60;99.90;;;17.32;100.00;97627.56;5074381;28;20484;-80
2023/08/29 08:59:46;;;;;;;9.00;3.83;;;16.70;99.90;;;17.36;100.00;97626.03;5073906;28;20471;-80
2023/08/29 09:02:19;;;;;;;4.47;3.10;;;16.70;99.90;;;17.43;100.00;97621.38;5074956;28;21456;-80
2023/08/29 09:04:49;;;;;;;4.67;3.27;;;16.70;99.90;;;17.45;100.00;97621.97;5075171;28;20463;-80
2023/08/29 09:07:19;;;;;;;6.50;2.80;;;16.70;99.90;;;17.50;100.00;97616.75;5075046;28;20492;-80
2023/08/29 09:10:09;;;;;;;4.47;2.47;;;16.80;99.90;;;17.55;100.00;97626.59;5076401;28;20456;-80
2023/08/29 09:12:48;;;;;;;7.00;4.90;;;16.70;99.90;;;17.59;100.00;97623.28;5073856;28;21003;-80
2023/08/29 09:15:19;;;;;;;8.47;4.70;;;16.80;99.90;;;17.65;100.00;97624.13;5072799;28;21013;-80
2023/08/29 09:17:53;;;;;;;8.00;5.40;;;17.00;99.90;;;17.72;100.00;97624.78;5072899;28;20496;-80
2023/08/29 09:20:28;;;;;;;80.80;48.70;;;16.90;99.90;;;17.80;100.00;97626.22;5072874;28;20456;-79
2023/08/29 09:22:57;;;;;;;9.07;5.57;;;17.00;99.90;;;17.89;100.00;97624.72;5073286;28;20926;-80
2023/08/29 09:25:28;;;;;;;5.23;4.07;;;17.20;99.90;;;17.97;100.00;97621.69;5075600;28;20534;-81
2023/08/29 09:27:59;;;;;;;6.73;4.40;;;17.20;99.90;;;18.08;100.00;97624.19;5074817;28;20535;-80
2023/08/29 09:30:30;;;;;;;7.43;4.33;;;17.50;99.90;;;18.13;100.00;97615.53;5074568;28;20679;-81
2023/08/29 09:33:09;;;;;;;7.43;5.10;;;17.60;99.90;;;18.18;100.00;97620.09;5072039;28;21019;-81
2023/08/29 09:35:40;;;;;;;11.33;4.43;;;17.50;99.90;;;18.16;100.00;97622.97;5074764;28;20909;-81
2023/08/29 09:38:12;;;;;;;5.27;4.13;;;17.50;99.90;;;18.19;100.00;97621.72;5073697;28;20514;-81
2023/08/29 09:40:47;;;;;;;4.80;3.27;;;17.60;99.90;;;18.21;100.00;97622.25;5073991;28;20869;-81
2023/08/29 09:43:18;;;;;;;6.77;4.53;;;17.50;99.90;;;18.20;100.00;97624.09;5073237;28;20970;-81
2023/08/29 09:45:51;;;;;;;6.67;4.57;;;17.40;99.90;;;18.21;100.00;97627.53;5073850;28;20475;-81
2023/08/29 09:48:22;;;;;;;6.57;4.77;;;17.40;99.90;;;18.27;100.00;97626.56;5072548;28;20498;-81
2023/08/29 09:50:52;;;;;;;6.60;3.90;;;17.60;99.90;;;18.31;100.00;97633.75;5072405;28;20479;-81
2023/08/29 09:53:22;;;;;;;6.70;3.63;;;17.60;99.90;;;18.37;100.00;97622.19;5074731;28;20463;-81
2023/08/29 09:56:07;;;;;;;5.53;3.33;;;17.70;99.90;;;18.47;100.00;97622.31;5073102;28;20990;-82
2023/08/29 09:58:38;;;;;;;5.20;2.67;;;17.80;99.90;;;18.57;100.00;97618.97;5072779;28;20468;-81
2023/08/29 10:01:11;;;;;;;7.00;3.93;;;17.90;99.90;;;18.68;100.00;97617.25;5072855;28;21012;-81
2023/08/29 10:03:44;;;;;;;5.43;3.93;;;18.00;99.90;;;18.73;100.00;97618.13;5072923;28;20462;-82
2023/08/29 10:06:18;;;;;;;9.33;4.13;;;18.10;99.90;;;18.73;100.00;97612.03;5072565;28;20463;-82
2023/08/29 10:09:03;;;;;;;6.93;3.60;;;18.10;99.90;;;18.82;100.00;97607.84;5072956;28;20466;-82
2023/08/29 10:11:33;;;;;;;4.17;3.13;;;18.20;99.90;;;18.92;100.00;97595.50;5075077;28;20471;-81
2023/08/29 10:14:19;;;;;;;5.00;3.10;;;18.30;99.90;;;19.00;100.00;97600.38;5072349;28;20460;-82
2023/08/29 10:16:50;;;;;;;8.70;2.53;;;18.30;99.90;;;19.05;100.00;97597.75;5072941;28;20993;-81
2023/08/29 10:19:22;;;;;;;3.50;2.47;;;18.40;99.90;;;19.09;100.00;97596.19;5074392;28;20455;-81
2023/08/29 10:21:54;;;;;;;5.23;2.53;;;18.40;99.90;;;19.13;100.00;97600.97;5072938;28;20998;-82
2023/08/29 10:24:25;;;;;;;8.10;5.10;;;18.40;99.90;;;19.10;100.00;97599.66;5074311;28;20464;-81
2023/08/29 10:26:57;;;;;;;7.70;4.70;;;18.50;99.90;;;19.08;100.00;97601.75;5076635;28;20490;-81
2023/08/29 10:29:28;;;;;;;5.10;4.00;;;18.40;99.90;;;19.07;100.00;97605.47;5075874;28;20483;-81